Stara Zagora, Bulgaria
Current Conditions -  °F | °C
As of 1:00 AM on Friday 21 Nov 2014 (Local Time) from LBPD Reporting Station
Scattered Clouds Scattered Clouds  
Wind Chill: 50°   Ceiling: Unl
Heat Index: 50°   Visibility: 6mi
Dew Point: 39°   Wind: 22mph
Humidity: 66%   Direction: 270°W
Pressure: 30.09"   Gusts: NA
Location:  42.42°N, 25.63°E
Report Text: LBPD 202200Z 27010MPS 9999 SCT082 10/04 Q1019 NOSIG
Loading
Personal Weather Stations






























Interactive Weather Map New forecast layout! Learn more

10-Day Weather Forecast

Advertisements
Track Severe Weather on mobile